createdAt,value
2022-10-16T00:00:51.395Z,7.20
2022-10-16T00:05:54.183Z,6.35
2022-10-16T00:11:01.599Z,5.70
2022-10-16T00:16:06.647Z,5.57
2022-10-16T00:21:11.808Z,5.10
2022-10-16T00:26:16.414Z,4.78
2022-10-16T00:31:23.025Z,4.13
2022-10-16T00:36:27.536Z,3.55
2022-10-16T00:41:31.544Z,3.75
2022-10-16T00:46:39.097Z,3.03
2022-10-16T00:51:44.454Z,2.70
2022-10-16T00:56:48.402Z,2.53
2022-10-16T01:01:52.996Z,2.40
2022-10-16T01:07:02.948Z,2.45
2022-10-16T01:12:10.474Z,2.85
2022-10-16T01:17:20.789Z,2.10
2022-10-16T01:22:28.150Z,2.30
2022-10-16T01:27:37.449Z,1.92
2022-10-16T01:32:43.746Z,2.10
2022-10-16T01:37:51.339Z,2.42
2022-10-16T01:43:01.920Z,2.17
2022-10-16T01:48:08.859Z,2.45
2022-10-16T01:53:16.055Z,2.22
2022-10-16T01:58:20.368Z,2.15
2022-10-16T02:03:23.561Z,2.70
2022-10-16T02:08:29.183Z,2.40
2022-10-16T02:13:39.595Z,3.45
2022-10-16T02:18:44.479Z,2.50
2022-10-16T02:23:53.471Z,2.55
2022-10-16T02:29:02.606Z,1.90
2022-10-16T02:34:08.516Z,2.10
2022-10-16T02:39:12.687Z,1.98
2022-10-16T02:44:17.076Z,1.80
2022-10-16T02:49:19.881Z,2.22
2022-10-16T02:54:22.764Z,1.92
2022-10-16T02:59:26.887Z,2.10
2022-10-16T03:04:29.650Z,2.28
2022-10-16T03:09:32.542Z,2.10
2022-10-16T03:14:36.799Z,2.13
2022-10-16T03:19:39.578Z,2.30
2022-10-16T03:24:42.353Z,2.35
2022-10-16T03:29:46.498Z,2.63
2022-10-16T03:34:49.327Z,2.40
2022-10-16T03:39:52.510Z,2.20
2022-10-16T03:44:56.696Z,2.35
2022-10-16T03:49:59.616Z,2.03
2022-10-16T03:55:02.597Z,1.88
2022-10-16T04:00:07.927Z,2.03
2022-10-16T04:05:14.769Z,1.98
2022-10-16T04:10:17.859Z,2.60
2022-10-16T04:15:22.033Z,2.40
2022-10-16T04:20:24.909Z,1.98
2022-10-16T04:25:27.810Z,2.25
2022-10-16T04:30:31.955Z,2.45
2022-10-16T04:35:34.738Z,2.60
2022-10-16T04:40:37.928Z,2.67
2022-10-16T04:45:42.280Z,3.00
2022-10-16T04:50:45.066Z,2.80
2022-10-16T04:55:48.228Z,3.30
2022-10-16T05:00:52.507Z,3.35
2022-10-16T05:05:55.786Z,3.78
2022-10-16T05:10:58.616Z,4.38
2022-10-16T05:16:02.809Z,4.07
2022-10-16T05:21:06.797Z,3.97
2022-10-16T05:26:10.771Z,3.95
2022-10-16T05:31:15.006Z,4.68
2022-10-16T05:36:19.206Z,4.70
2022-10-16T05:41:22.918Z,4.00
2022-10-16T05:46:27.088Z,3.45
2022-10-16T05:51:30.154Z,3.50
2022-10-16T05:56:33.266Z,3.15
2022-10-16T06:01:37.430Z,3.00
2022-10-16T06:06:40.302Z,3.42
2022-10-16T06:11:43.261Z,2.90
2022-10-16T06:16:47.376Z,3.25
2022-10-16T06:21:50.200Z,3.38
2022-10-16T06:26:52.955Z,2.80
2022-10-16T06:31:57.062Z,2.72
2022-10-16T06:36:59.797Z,3.58
2022-10-16T06:42:02.514Z,2.58
2022-10-16T06:47:13.557Z,2.40
2022-10-16T06:52:17.076Z,3.03
2022-10-16T06:57:20.493Z,2.65
2022-10-16T07:02:25.211Z,2.85
2022-10-16T07:07:28.420Z,2.90
2022-10-16T07:12:31.212Z,2.80
2022-10-16T07:17:35.306Z,2.88
2022-10-16T07:22:38.043Z,3.03
2022-10-16T07:27:41.020Z,2.90
2022-10-16T07:32:45.232Z,3.17
2022-10-16T07:37:48.553Z,2.83
2022-10-16T07:42:51.379Z,3.38
2022-10-16T07:47:55.516Z,3.10
2022-10-16T07:52:58.309Z,3.25
2022-10-16T07:58:01.528Z,3.00
2022-10-16T08:03:05.912Z,3.25
2022-10-16T08:08:08.804Z,2.80
2022-10-16T08:13:12.166Z,3.65
2022-10-16T08:18:17.169Z,3.20
2022-10-16T08:23:20.293Z,3.67
2022-10-16T08:28:24.136Z,2.85
2022-10-16T08:33:28.260Z,3.13
2022-10-16T08:38:31.218Z,2.40
2022-10-16T08:43:46.734Z,3.00
2022-10-16T08:48:53.748Z,3.60
2022-10-16T08:53:58.911Z,3.03
2022-10-16T08:59:03.310Z,2.47
2022-10-16T09:04:27.970Z,2.75
2022-10-16T09:09:56.496Z,3.08
2022-10-16T09:15:08.908Z,2.30
2022-10-16T09:20:31.252Z,2.40
2022-10-16T09:25:35.774Z,1.83
2022-10-16T09:30:40.348Z,2.50
2022-10-16T09:35:46.571Z,2.00
2022-10-16T09:40:58.841Z,1.67
2022-10-16T09:46:08.350Z,1.35
2022-10-16T09:51:21.837Z,1.95
2022-10-16T09:56:26.424Z,1.30
2022-10-16T10:01:33.717Z,1.83
2022-10-16T10:06:42.546Z,1.70
2022-10-16T10:11:50.122Z,2.10
2022-10-16T10:16:54.780Z,2.72
2022-10-16T10:21:58.915Z,1.70
2022-10-16T10:27:10.334Z,1.40
2022-10-16T10:32:28.618Z,1.58
2022-10-16T10:37:48.602Z,1.80
2022-10-16T10:42:55.660Z,1.50
2022-10-16T10:48:14.477Z,1.30
2022-10-16T10:53:34.687Z,1.40
2022-10-16T10:59:03.122Z,1.00
2022-10-16T11:04:31.839Z,1.45
2022-10-16T11:09:41.392Z,1.20
2022-10-16T11:14:51.648Z,1.05
2022-10-16T11:19:58.785Z,1.00
2022-10-16T11:25:13.945Z,0.82
2022-10-16T11:30:22.302Z,2.55
2022-10-16T11:35:30.543Z,1.30
2022-10-16T11:40:41.968Z,1.58
2022-10-16T11:45:48.560Z,1.10
2022-10-16T11:50:55.443Z,1.10
2022-10-16T11:55:59.670Z,1.10
2022-10-16T12:01:15.577Z,0.90
2022-10-16T12:06:33.533Z,1.40
2022-10-16T12:11:40.791Z,1.25
2022-10-16T12:16:53.608Z,1.43
2022-10-16T12:21:59.041Z,1.52
2022-10-16T12:27:03.752Z,1.20
2022-10-16T12:32:41.933Z,1.15
2022-10-16T12:42:50.952Z,1.48
2022-10-16T12:47:55.852Z,0.90
2022-10-16T12:52:59.126Z,1.00
2022-10-16T12:58:21.310Z,1.23
2022-10-16T13:04:03.386Z,1.33
2022-10-16T13:09:35.430Z,1.33
2022-10-16T13:15:01.835Z,1.75
2022-10-16T13:20:19.333Z,1.40
2022-10-16T13:25:33.932Z,1.08
2022-10-16T13:30:42.125Z,1.52
2022-10-16T13:40:55.867Z,1.20
2022-10-16T13:46:02.862Z,1.40
2022-10-16T13:51:08.887Z,1.08
2022-10-16T13:56:14.146Z,1.20
2022-10-16T14:01:22.192Z,1.27
2022-10-16T14:06:25.007Z,1.50
2022-10-16T14:11:28.339Z,1.27
2022-10-16T14:16:34.577Z,1.50
2022-10-16T14:21:38.256Z,1.30
2022-10-16T14:26:49.700Z,1.38
2022-10-16T14:31:59.439Z,1.70
2022-10-16T14:42:18.156Z,1.65
2022-10-16T14:47:26.770Z,2.25
2022-10-16T14:52:29.784Z,1.60
2022-10-16T14:57:38.076Z,1.85
2022-10-16T15:07:45.110Z,1.50
2022-10-16T15:12:48.612Z,1.55
2022-10-16T15:17:54.624Z,1.67
2022-10-16T15:22:58.021Z,1.95
2022-10-16T15:28:11.896Z,1.65
2022-10-16T15:33:21.757Z,1.67
2022-10-16T15:38:25.200Z,2.20
2022-10-16T15:43:29.110Z,1.80
2022-10-16T15:48:34.825Z,2.53
2022-10-16T15:53:47.329Z,2.10
2022-10-16T15:58:50.556Z,2.22
2022-10-16T16:03:56.969Z,2.03
2022-10-16T16:14:06.131Z,2.33
2022-10-16T16:19:11.710Z,2.80
2022-10-16T16:24:14.999Z,2.08
2022-10-16T16:29:18.446Z,1.55
2022-10-16T16:34:22.707Z,3.33
2022-10-16T16:39:26.289Z,4.03
2022-10-16T16:44:29.192Z,4.35
2022-10-16T16:49:33.614Z,5.32
2022-10-16T16:54:36.484Z,5.60
2022-10-16T16:59:40.687Z,4.53
2022-10-16T17:04:44.918Z,5.20
2022-10-16T17:09:47.847Z,5.35
2022-10-16T17:14:52.643Z,4.40
2022-10-16T17:19:56.796Z,4.15
2022-10-16T17:24:59.593Z,6.10
2022-10-16T17:30:02.411Z,4.60
2022-10-16T17:35:08.708Z,5.55
2022-10-16T17:45:19.332Z,3.20
2022-10-16T17:50:25.829Z,3.72
2022-10-16T17:55:29.008Z,3.05
2022-10-16T18:00:32.117Z,3.10
2022-10-16T18:05:39.336Z,5.38
2022-10-16T18:10:47.333Z,4.55
2022-10-16T18:16:01.082Z,4.70
2022-10-16T18:21:09.194Z,3.10
2022-10-16T18:26:13.938Z,3.33
2022-10-16T18:31:21.651Z,3.28
2022-10-16T18:36:29.944Z,3.83
2022-10-16T18:46:45.224Z,3.10
2022-10-16T18:51:52.957Z,3.92
2022-10-16T18:56:56.406Z,3.40
2022-10-16T19:01:59.754Z,4.82
2022-10-16T19:07:05.051Z,8.63
2022-10-16T19:12:14.891Z,4.30
2022-10-16T19:17:18.548Z,3.50
2022-10-16T19:22:51.931Z,3.45
2022-10-16T19:27:56.804Z,4.70
2022-10-16T19:33:06.832Z,4.00
2022-10-16T19:38:19.838Z,3.22
2022-10-16T19:43:24.509Z,3.80
2022-10-16T19:48:27.448Z,3.40
2022-10-16T19:53:46.604Z,3.78
2022-10-16T20:13:07.620Z,4.60
2022-10-16T20:18:19.500Z,5.30
2022-10-16T20:38:24.421Z,5.43
2022-10-16T20:48:52.491Z,4.90
2022-10-16T20:53:57.261Z,5.38
2022-10-16T20:59:01.650Z,5.63
2022-10-16T21:04:08.447Z,4.72
2022-10-16T21:09:11.315Z,4.82
2022-10-16T21:14:15.680Z,4.47
2022-10-16T21:19:19.345Z,5.32
2022-10-16T21:24:27.831Z,4.32
2022-10-16T21:29:32.247Z,4.72
2022-10-16T21:34:36.215Z,5.35
2022-10-16T21:39:39.396Z,4.25
2022-10-16T21:44:43.617Z,4.50
2022-10-16T21:49:46.539Z,4.00
2022-10-16T21:54:58.239Z,4.20
2022-10-16T22:00:05.439Z,4.30
2022-10-16T22:05:10.360Z,4.35
2022-10-16T22:10:13.292Z,4.43
2022-10-16T22:15:17.707Z,4.60
2022-10-16T22:20:20.602Z,3.88
2022-10-16T22:25:26.669Z,4.13
2022-10-16T22:30:30.917Z,4.03
2022-10-16T22:35:40.059Z,4.10
2022-10-16T22:40:42.860Z,4.20
2022-10-16T22:45:47.080Z,4.30
2022-10-16T22:50:50.061Z,5.18
2022-10-16T22:55:53.200Z,5.10
2022-10-16T23:06:00.252Z,5.00
2022-10-16T23:11:07.255Z,4.28
2022-10-16T23:16:13.172Z,4.07
2022-10-16T23:21:17.879Z,4.32
2022-10-16T23:26:23.448Z,4.03
2022-10-16T23:31:28.373Z,3.60
2022-10-16T23:36:31.585Z,3.70
2022-10-16T23:41:34.481Z,4.13
2022-10-16T23:46:39.549Z,4.00
2022-10-16T23:51:42.376Z,4.13
2022-10-16T23:56:45.171Z,4.80
